Terminal Aerodrome Forecast
Issued by NWS Wakefield, VA

Home | Current Version | Previous Version | Text Only | Print | Product List | Glossary On
Versions: 1 2 3 4 5 6 7 8 9 10 11 12 13 14 15 16 17 18
000
FTUS41 KAKQ 270500
TAFRIC
TAF
KRIC 270537Z 2706/2806 00000KT 5SM BR SCT003 BKN050
      TEMPO 2706/2710 2SM BR BKN003
     FM271000 VRB02KT P6SM SCT020 OVC050
     FM271300 01005KT P6SM OVC015
     FM271800 01007KT P6SM SCT015 OVC030=

USA.gov is the U.S. government's official web portal to all federal, state and local government web resources and services.